PWSweather.com
Personal Weather Stations
Station Observations
WODONGA
Wodonga, WodongaAU 3690

WodongaWodongaAU 3690

Lat: -36.121, Lon: 146.87

Elevation: 541

Station Type: Weather Station

http://www.wodongaweather.net

High Low Average
Temperature 93.4°F34.1°F 63.0°F17.2°F 76.1°F24.5°F
Dew Point 60.6°F15.9°F 49.8°F9.9°F 55.2°F12.9°F
Winds 15.0 mph WNW24.1 mph WNW Calm Calm 4.6 mph 7.4 mph
Wind Gusts 19.7 mph31.7 mph -- 6.9 mph11.1 mph
Humidity 70% 25% 51%
Pressure 29.97 in1014.90 in 29.84 in1010.50 in -
Precipitation 0.00 in0.00 in - -
Hour Temp Dew Point Humidity Winds Wind Gusts Pressure Precip Precip Rate Daily Precip Total
12:00 AM 70.0°F21.1°C 57.7°F14.3°C 65% 3.5 mph SE5.6 kmh SE 4.5 mph7.2 kmh 29.96 in1014.6 mb 0.00 in0.0 mm 0.00 in/hr0.0 mm/hr 0.00 in0.0 mm
12:05 AM 69.8°F21.0°C 57.5°F14.2°C 65% 2.9 mph SE4.7 kmh SE 4.5 mph7.2 kmh 29.96 in1014.6 mb 0.00 in0.0 mm 0.00 in/hr0.0 mm/hr 0.00 in0.0 mm
12:10 AM 69.6°F20.9°C 57.4°F14.1°C 65% 2.5 mph SE4.0 kmh SE 6.0 mph9.7 kmh 29.96 in1014.6 mb 0.00 in0.0 mm 0.00 in/hr0.0 mm/hr 0.00 in0.0 mm
12:15 AM 69.4°F20.8°C 57.2°F14.0°C 65% 2.7 mph E4.3 kmh E 6.0 mph9.7 kmh 29.96 in1014.6 mb 0.00 in0.0 mm 0.00 in/hr0.0 mm/hr 0.00 in0.0 mm
12:20 AM 69.3°F20.7°C 57.4°F14.1°C 66% 2.7 mph ESE4.3 kmh ESE 6.0 mph9.7 kmh 29.96 in1014.6 mb 0.00 in0.0 mm 0.00 in/hr0.0 mm/hr 0.00 in0.0 mm
12:25 AM 69.3°F20.7°C 57.4°F14.1°C 66% 3.1 mph SE5.0 kmh SE 4.5 mph7.2 kmh 29.96 in1014.6 mb 0.00 in0.0 mm 0.00 in/hr0.0 mm/hr 0.00 in0.0 mm
12:30 AM 69.1°F20.6°C 57.3°F14.1°C 66% 3.1 mph SSE5.0 kmh SSE 4.5 mph7.2 kmh 29.96 in1014.6 mb 0.00 in0.0 mm 0.00 in/hr0.0 mm/hr 0.00 in0.0 mm
12:35 AM 69.1°F20.6°C 57.3°F14.1°C 66% 2.9 mph SSE4.7 kmh SSE 4.5 mph7.2 kmh 29.96 in1014.6 mb 0.00 in0.0 mm 0.00 in/hr0.0 mm/hr 0.00 in0.0 mm
12:40 AM 68.9°F20.5°C 57.5°F14.2°C 67% 2.8 mph SE4.5 kmh SE 3.8 mph6.1 kmh 29.96 in1014.6 mb 0.00 in0.0 mm 0.00 in/hr0.0 mm/hr 0.00 in0.0 mm
12:45 AM 68.7°F20.4°C 57.3°F14.1°C 67% 3.3 mph SE5.3 kmh SE 5.4 mph8.7 kmh 29.95 in1014.2 mb 0.00 in0.0 mm 0.00 in/hr0.0 mm/hr 0.00 in0.0 mm
12:50 AM 68.7°F20.4°C 57.3°F14.1°C 67% 3.5 mph SE5.6 kmh SE 5.4 mph8.7 kmh 29.95 in1014.2 mb 0.00 in0.0 mm 0.00 in/hr0.0 mm/hr 0.00 in0.0 mm
12:55 AM 68.5°F20.3°C 57.2°F14.0°C 67% 2.5 mph SE4.0 kmh SE 5.4 mph8.7 kmh 29.95 in1014.2 mb 0.00 in0.0 mm 0.00 in/hr0.0 mm/hr 0.00 in0.0 mm
01:00 AM 68.4°F20.2°C 57.0°F13.9°C 67% 2.6 mph SSE4.2 kmh SSE 4.5 mph7.2 kmh 29.95 in1014.2 mb 0.00 in0.0 mm 0.00 in/hr0.0 mm/hr 0.00 in0.0 mm
01:05 AM 68.4°F20.2°C 56.6°F13.7°C 66% 3.9 mph SE6.3 kmh SE 5.4 mph8.7 kmh 29.95 in1014.2 mb 0.00 in0.0 mm 0.00 in/hr0.0 mm/hr 0.00 in0.0 mm
01:10 AM 68.5°F20.3°C 56.3°F13.5°C 65% 4.6 mph ESE7.4 kmh ESE 6.0 mph9.7 kmh 29.94 in1013.9 mb 0.00 in0.0 mm 0.00 in/hr0.0 mm/hr 0.00 in0.0 mm
01:15 AM 68.5°F20.3°C 56.3°F13.5°C 65% 3.8 mph SE6.1 kmh SE 6.0 mph9.7 kmh 29.95 in1014.2 mb 0.00 in0.0 mm 0.00 in/hr0.0 mm/hr 0.00 in0.0 mm
01:20 AM 68.4°F20.2°C 56.6°F13.7°C 66% 3.2 mph SSE5.1 kmh SSE 4.5 mph7.2 kmh 29.94 in1013.9 mb 0.00 in0.0 mm 0.00 in/hr0.0 mm/hr 0.00 in0.0 mm
01:25 AM 68.0°F20.0°C 56.7°F13.7°C 67% 4.1 mph SE6.6 kmh SE 6.9 mph11.1 kmh 29.94 in1013.9 mb 0.00 in0.0 mm 0.00 in/hr0.0 mm/hr 0.00 in0.0 mm
01:30 AM 68.0°F20.0°C 56.7°F13.7°C 67% 3.7 mph SSE6.0 kmh SSE 6.9 mph11.1 kmh 29.94 in1013.9 mb 0.00 in0.0 mm 0.00 in/hr0.0 mm/hr 0.00 in0.0 mm
01:35 AM 67.8°F19.9°C 56.5°F13.6°C 67% 2.9 mph SE4.7 kmh SE 3.8 mph6.1 kmh 29.94 in1013.9 mb 0.00 in0.0 mm 0.00 in/hr0.0 mm/hr 0.00 in0.0 mm
01:40 AM 67.6°F19.8°C 56.7°F13.7°C 68% 3.1 mph SE5.0 kmh SE 4.5 mph7.2 kmh 29.93 in1013.5 mb 0.00 in0.0 mm 0.00 in/hr0.0 mm/hr 0.00 in0.0 mm
01:45 AM 67.5°F19.7°C 56.6°F13.7°C 68% 3.4 mph SSE5.5 kmh SSE 4.5 mph7.2 kmh 29.94 in1013.9 mb 0.00 in0.0 mm 0.00 in/hr0.0 mm/hr 0.00 in0.0 mm
01:50 AM 67.3°F19.6°C 56.4°F13.6°C 68% 3.1 mph S5.0 kmh S 4.5 mph7.2 kmh 29.94 in1013.9 mb 0.00 in0.0 mm 0.00 in/hr0.0 mm/hr 0.00 in0.0 mm
01:55 AM 67.3°F19.6°C 56.4°F13.6°C 68% 2.4 mph SSE3.9 kmh SSE 3.8 mph6.1 kmh 29.94 in1013.9 mb 0.00 in0.0 mm 0.00 in/hr0.0 mm/hr 0.00 in0.0 mm
02:00 AM 67.1°F19.5°C 56.2°F13.4°C 68% 2.9 mph S4.7 kmh S 5.4 mph8.7 kmh 29.94 in1013.9 mb 0.00 in0.0 mm 0.00 in/hr0.0 mm/hr 0.00 in0.0 mm
02:05 AM 67.1°F19.5°C 56.2°F13.4°C 68% 3.5 mph SSE5.6 kmh SSE 5.4 mph8.7 kmh 29.94 in1013.9 mb 0.00 in0.0 mm 0.00 in/hr0.0 mm/hr 0.00 in0.0 mm
02:10 AM 66.7°F19.3°C 56.3°F13.5°C 69% 2.1 mph SSE3.4 kmh SSE 3.8 mph6.1 kmh 29.94 in1013.9 mb 0.00 in0.0 mm 0.00 in/hr0.0 mm/hr 0.00 in0.0 mm
02:15 AM 66.6°F19.2°C 56.1°F13.4°C 69% 1.4 mph SSE2.3 kmh SSE 2.2 mph3.5 kmh 29.94 in1013.9 mb 0.00 in0.0 mm 0.00 in/hr0.0 mm/hr 0.00 in0.0 mm
02:20 AM 66.4°F19.1°C 56.3°F13.5°C 70% 2.3 mph S3.7 kmh S 3.8 mph6.1 kmh 29.93 in1013.5 mb 0.00 in0.0 mm 0.00 in/hr0.0 mm/hr 0.00 in0.0 mm
02:25 AM 66.4°F19.1°C 56.3°F13.5°C 70% 2.9 mph SSE4.7 kmh SSE 4.5 mph7.2 kmh 29.93 in1013.5 mb 0.00 in0.0 mm 0.00 in/hr0.0 mm/hr 0.00 in0.0 mm
02:30 AM 66.4°F19.1°C 55.9°F13.3°C 69% 2.6 mph SSE4.2 kmh SSE 4.5 mph7.2 kmh 29.93 in1013.5 mb 0.00 in0.0 mm 0.00 in/hr0.0 mm/hr 0.00 in0.0 mm
02:35 AM 66.2°F19.0°C 56.1°F13.4°C 70% 2.8 mph S4.5 kmh S 3.8 mph6.1 kmh 29.93 in1013.5 mb 0.00 in0.0 mm 0.00 in/hr0.0 mm/hr 0.00 in0.0 mm
02:40 AM 66.2°F19.0°C 55.8°F13.2°C 69% 2.4 mph S3.9 kmh S 3.8 mph6.1 kmh 29.93 in1013.5 mb 0.00 in0.0 mm 0.00 in/hr0.0 mm/hr 0.00 in0.0 mm
02:45 AM 66.0°F18.9°C 56.0°F13.3°C 70% 1.7 mph SSW2.7 kmh SSW 3.1 mph5.0 kmh 29.93 in1013.5 mb 0.00 in0.0 mm 0.00 in/hr0.0 mm/hr 0.00 in0.0 mm
02:50 AM 66.0°F18.9°C 56.0°F13.3°C 70% 1.8 mph S2.9 kmh S 3.1 mph5.0 kmh 29.93 in1013.5 mb 0.00 in0.0 mm 0.00 in/hr0.0 mm/hr 0.00 in0.0 mm
02:55 AM 66.0°F18.9°C 55.6°F13.1°C 69% 2.7 mph SE4.3 kmh SE 4.5 mph7.2 kmh 29.93 in1013.5 mb 0.00 in0.0 mm 0.00 in/hr0.0 mm/hr 0.00 in0.0 mm
03:00 AM 66.0°F18.9°C 55.6°F13.1°C 69% 3.2 mph SSE5.1 kmh SSE 4.5 mph7.2 kmh 29.93 in1013.5 mb 0.00 in0.0 mm 0.00 in/hr0.0 mm/hr 0.00 in0.0 mm
03:05 AM 66.0°F18.9°C 55.6°F13.1°C 69% 2.6 mph S4.2 kmh S 4.5 mph7.2 kmh 29.93 in1013.5 mb 0.00 in0.0 mm 0.00 in/hr0.0 mm/hr 0.00 in0.0 mm
03:10 AM 65.8°F18.8°C 55.4°F13.0°C 69% 2.2 mph SSE3.5 kmh SSE 3.8 mph6.1 kmh 29.93 in1013.5 mb 0.00 in0.0 mm 0.00 in/hr0.0 mm/hr 0.00 in0.0 mm
03:15 AM 65.8°F18.8°C 55.4°F13.0°C 69% 2.5 mph S4.0 kmh S 3.1 mph5.0 kmh 29.93 in1013.5 mb 0.00 in0.0 mm 0.00 in/hr0.0 mm/hr 0.00 in0.0 mm
03:20 AM 65.7°F18.7°C 55.2°F12.9°C 69% 2.9 mph S4.7 kmh S 3.8 mph6.1 kmh 29.93 in1013.5 mb 0.00 in0.0 mm 0.00 in/hr0.0 mm/hr 0.00 in0.0 mm
03:25 AM 65.5°F18.6°C 55.1°F12.8°C 69% 2.4 mph SSE3.9 kmh SSE 3.8 mph6.1 kmh 29.93 in1013.5 mb 0.00 in0.0 mm 0.00 in/hr0.0 mm/hr 0.00 in0.0 mm
03:30 AM 65.5°F18.6°C 54.7°F12.6°C 68% 2.3 mph SE3.7 kmh SE 4.5 mph7.2 kmh 29.93 in1013.5 mb 0.00 in0.0 mm 0.00 in/hr0.0 mm/hr 0.00 in0.0 mm
03:35 AM 65.7°F18.7°C 54.4°F12.4°C 67% 3.0 mph SE4.8 kmh SE 4.5 mph7.2 kmh 29.92 in1013.2 mb 0.00 in0.0 mm 0.00 in/hr0.0 mm/hr 0.00 in0.0 mm
03:40 AM 65.7°F18.7°C 54.4°F12.4°C 67% 3.0 mph SE4.8 kmh SE 4.5 mph7.2 kmh 29.93 in1013.5 mb 0.00 in0.0 mm 0.00 in/hr0.0 mm/hr 0.00 in0.0 mm
03:45 AM 65.7°F18.7°C 54.4°F12.4°C 67% 3.0 mph SE4.8 kmh SE 4.5 mph7.2 kmh 29.92 in1013.2 mb 0.00 in0.0 mm 0.00 in/hr0.0 mm/hr 0.00 in0.0 mm
03:50 AM 65.8°F18.8°C 54.2°F12.3°C 66% 3.3 mph SE5.3 kmh SE 3.8 mph6.1 kmh 29.92 in1013.2 mb 0.00 in0.0 mm 0.00 in/hr0.0 mm/hr 0.00 in0.0 mm
03:55 AM 65.7°F18.7°C 54.0°F12.2°C 66% 2.9 mph SSE4.7 kmh SSE 3.8 mph6.1 kmh 29.92 in1013.2 mb 0.00 in0.0 mm 0.00 in/hr0.0 mm/hr 0.00 in0.0 mm
04:00 AM 65.7°F18.7°C 54.0°F12.2°C 66% 2.4 mph S3.9 kmh S 3.8 mph6.1 kmh 29.92 in1013.2 mb 0.00 in0.0 mm 0.00 in/hr0.0 mm/hr 0.00 in0.0 mm
04:05 AM 65.5°F18.6°C 53.8°F12.1°C 66% 2.7 mph SSE4.3 kmh SSE 3.8 mph6.1 kmh 29.93 in1013.5 mb 0.00 in0.0 mm 0.00 in/hr0.0 mm/hr 0.00 in0.0 mm
04:10 AM 65.5°F18.6°C 53.8°F12.1°C 66% 3.1 mph SE5.0 kmh SE 3.8 mph6.1 kmh 29.93 in1013.5 mb 0.00 in0.0 mm 0.00 in/hr0.0 mm/hr 0.00 in0.0 mm
04:15 AM 65.5°F18.6°C 53.8°F12.1°C 66% 3.3 mph SE5.3 kmh SE 4.5 mph7.2 kmh 29.93 in1013.5 mb 0.00 in0.0 mm 0.00 in/hr0.0 mm/hr 0.00 in0.0 mm
04:20 AM 65.5°F18.6°C 53.8°F12.1°C 66% 3.6 mph SE5.8 kmh SE 4.5 mph7.2 kmh 29.93 in1013.5 mb 0.00 in0.0 mm 0.00 in/hr0.0 mm/hr 0.00 in0.0 mm
04:25 AM 65.5°F18.6°C 53.8°F12.1°C 66% 2.9 mph SSE4.7 kmh SSE 4.5 mph7.2 kmh 29.93 in1013.5 mb 0.00 in0.0 mm 0.00 in/hr0.0 mm/hr 0.00 in0.0 mm
04:30 AM 65.5°F18.6°C 53.8°F12.1°C 66% 2.4 mph S3.9 kmh S 3.8 mph6.1 kmh 29.93 in1013.5 mb 0.00 in0.0 mm 0.00 in/hr0.0 mm/hr 0.00 in0.0 mm
04:35 AM 65.3°F18.5°C 53.7°F12.1°C 66% 2.7 mph S4.3 kmh S 3.8 mph6.1 kmh 29.93 in1013.5 mb 0.00 in0.0 mm 0.00 in/hr0.0 mm/hr 0.00 in0.0 mm
04:40 AM 65.3°F18.5°C 53.3°F11.8°C 65% 2.4 mph S3.9 kmh S 3.1 mph5.0 kmh 29.93 in1013.5 mb 0.00 in0.0 mm 0.00 in/hr0.0 mm/hr 0.00 in0.0 mm
04:45 AM 65.1°F18.4°C 53.5°F11.9°C 66% 2.1 mph SSE3.4 kmh SSE 3.1 mph5.0 kmh 29.93 in1013.5 mb 0.00 in0.0 mm 0.00 in/hr0.0 mm/hr 0.00 in0.0 mm
04:50 AM 65.1°F18.4°C 53.1°F11.7°C 65% 2.2 mph SSE3.5 kmh SSE 3.1 mph5.0 kmh 29.94 in1013.9 mb 0.00 in0.0 mm 0.00 in/hr0.0 mm/hr 0.00 in0.0 mm
04:55 AM 64.9°F18.3°C 52.9°F11.6°C 65% 2.2 mph S3.5 kmh S 3.1 mph5.0 kmh 29.94 in1013.9 mb 0.00 in0.0 mm 0.00 in/hr0.0 mm/hr 0.00 in0.0 mm
05:00 AM 64.9°F18.3°C 52.9°F11.6°C 65% 2.0 mph S3.2 kmh S 3.1 mph5.0 kmh 29.94 in1013.9 mb 0.00 in0.0 mm 0.00 in/hr0.0 mm/hr 0.00 in0.0 mm
05:05 AM 64.9°F18.3°C 52.9°F11.6°C 65% 1.9 mph S3.1 kmh S 2.2 mph3.5 kmh 29.94 in1013.9 mb 0.00 in0.0 mm 0.00 in/hr0.0 mm/hr 0.00 in0.0 mm
05:10 AM 64.8°F18.2°C 52.7°F11.5°C 65% 2.1 mph S3.4 kmh S 2.2 mph3.5 kmh 29.95 in1014.2 mb 0.00 in0.0 mm 0.00 in/hr0.0 mm/hr 0.00 in0.0 mm
05:15 AM 64.8°F18.2°C 52.7°F11.5°C 65% 2.1 mph SSE3.4 kmh SSE 3.1 mph5.0 kmh 29.95 in1014.2 mb 0.00 in0.0 mm 0.00 in/hr0.0 mm/hr 0.00 in0.0 mm
05:20 AM 64.6°F18.1°C 52.6°F11.4°C 65% 1.6 mph S2.6 kmh S 3.1 mph5.0 kmh 29.95 in1014.2 mb 0.00 in0.0 mm 0.00 in/hr0.0 mm/hr 0.00 in0.0 mm
05:25 AM 64.6°F18.1°C 52.6°F11.4°C 65% 1.1 mph S1.8 kmh S 3.1 mph5.0 kmh 29.95 in1014.2 mb 0.00 in0.0 mm 0.00 in/hr0.0 mm/hr 0.00 in0.0 mm
05:30 AM 64.6°F18.1°C 52.6°F11.4°C 65% 1.3 mph S2.1 kmh S 3.8 mph6.1 kmh 29.95 in1014.2 mb 0.00 in0.0 mm 0.00 in/hr0.0 mm/hr 0.00 in0.0 mm
05:35 AM 64.6°F18.1°C 52.6°F11.4°C 65% 1.4 mph S2.3 kmh S 3.8 mph6.1 kmh 29.96 in1014.6 mb 0.00 in0.0 mm 0.00 in/hr0.0 mm/hr 0.00 in0.0 mm
05:40 AM 64.4°F18.0°C 52.4°F11.3°C 65% 1.4 mph S2.3 kmh S 2.2 mph3.5 kmh 29.96 in1014.6 mb 0.00 in0.0 mm 0.00 in/hr0.0 mm/hr 0.00 in0.0 mm
05:45 AM 64.4°F18.0°C 52.8°F11.6°C 66% 1.3 mph S2.1 kmh S 2.2 mph3.5 kmh 29.96 in1014.6 mb 0.00 in0.0 mm 0.00 in/hr0.0 mm/hr 0.00 in0.0 mm
05:50 AM 64.4°F18.0°C 52.8°F11.6°C 66% 1.4 mph S2.3 kmh S 2.2 mph3.5 kmh 29.96 in1014.6 mb 0.00 in0.0 mm 0.00 in/hr0.0 mm/hr 0.00 in0.0 mm
05:55 AM 64.4°F18.0°C 53.2°F11.8°C 67% 1.9 mph S3.1 kmh S 2.2 mph3.5 kmh 29.95 in1014.2 mb 0.00 in0.0 mm 0.00 in/hr0.0 mm/hr 0.00 in0.0 mm
06:00 AM 64.4°F18.0°C 53.2°F11.8°C 67% 2.0 mph S3.2 kmh S 3.1 mph5.0 kmh 29.96 in1014.6 mb 0.00 in0.0 mm 0.00 in/hr0.0 mm/hr 0.00 in0.0 mm
06:05 AM 64.6°F18.1°C 53.4°F11.9°C 67% 2.0 mph SSE3.2 kmh SSE 3.1 mph5.0 kmh 29.96 in1014.6 mb 0.00 in0.0 mm 0.00 in/hr0.0 mm/hr 0.00 in0.0 mm
06:10 AM 64.8°F18.2°C 53.6°F12.0°C 67% 1.4 mph SE2.3 kmh SE 3.1 mph5.0 kmh 29.96 in1014.6 mb 0.00 in0.0 mm 0.00 in/hr0.0 mm/hr 0.00 in0.0 mm
06:15 AM 65.1°F18.4°C 53.9°F12.2°C 67% 0.9 mph S1.4 kmh S 2.2 mph3.5 kmh 29.96 in1014.6 mb 0.00 in0.0 mm 0.00 in/hr0.0 mm/hr 0.00 in0.0 mm
06:20 AM 65.5°F18.6°C 54.3°F12.4°C 67% 1.1 mph S1.8 kmh S 2.2 mph3.5 kmh 29.96 in1014.6 mb 0.00 in0.0 mm 0.00 in/hr0.0 mm/hr 0.00 in0.0 mm
06:25 AM 65.7°F18.7°C 54.0°F12.2°C 66% 1.7 mph S2.7 kmh S 3.1 mph5.0 kmh 29.96 in1014.6 mb 0.00 in0.0 mm 0.00 in/hr0.0 mm/hr 0.00 in0.0 mm
06:30 AM 66.2°F19.0°C 54.5°F12.5°C 66% 1.9 mph S3.1 kmh S 3.1 mph5.0 kmh 29.97 in1014.9 mb 0.00 in0.0 mm 0.00 in/hr0.0 mm/hr 0.00 in0.0 mm
06:35 AM 66.7°F19.3°C 54.6°F12.6°C 65% 1.6 mph S2.6 kmh S 2.2 mph3.5 kmh 29.97 in1014.9 mb 0.00 in0.0 mm 0.00 in/hr0.0 mm/hr 0.00 in0.0 mm
06:40 AM 67.1°F19.5°C 54.5°F12.5°C 64% 2.2 mph SSE3.5 kmh SSE 3.8 mph6.1 kmh 29.96 in1014.6 mb 0.00 in0.0 mm 0.00 in/hr0.0 mm/hr 0.00 in0.0 mm
06:45 AM 67.6°F19.8°C 55.0°F12.8°C 64% 2.9 mph SE4.7 kmh SE 4.5 mph7.2 kmh 29.96 in1014.6 mb 0.00 in0.0 mm 0.00 in/hr0.0 mm/hr 0.00 in0.0 mm
06:50 AM 68.2°F20.1°C 55.1°F12.8°C 63% 3.0 mph SE4.8 kmh SE 4.5 mph7.2 kmh 29.96 in1014.6 mb 0.00 in0.0 mm 0.00 in/hr0.0 mm/hr 0.00 in0.0 mm
06:55 AM 68.5°F20.3°C 55.5°F13.1°C 63% 2.9 mph SE4.7 kmh SE 3.8 mph6.1 kmh 29.96 in1014.6 mb 0.00 in0.0 mm 0.00 in/hr0.0 mm/hr 0.00 in0.0 mm
07:00 AM 69.3°F20.7°C 56.2°F13.4°C 63% 2.9 mph SSE4.7 kmh SSE 4.5 mph7.2 kmh 29.96 in1014.6 mb 0.00 in0.0 mm 0.00 in/hr0.0 mm/hr 0.00 in0.0 mm
07:05 AM 70.0°F21.1°C 56.4°F13.6°C 62% 3.1 mph SE5.0 kmh SE 4.5 mph7.2 kmh 29.96 in1014.6 mb 0.00 in0.0 mm 0.00 in/hr0.0 mm/hr 0.00 in0.0 mm
07:10 AM 70.5°F21.4°C 56.4°F13.6°C 61% 3.2 mph SE5.1 kmh SE 5.4 mph8.7 kmh 29.96 in1014.6 mb 0.00 in0.0 mm 0.00 in/hr0.0 mm/hr 0.00 in0.0 mm
07:15 AM 71.1°F21.7°C 56.5°F13.6°C 60% 3.4 mph SSE5.5 kmh SSE 5.4 mph8.7 kmh 29.96 in1014.6 mb 0.00 in0.0 mm 0.00 in/hr0.0 mm/hr 0.00 in0.0 mm
07:20 AM 72.0°F22.2°C 56.9°F13.8°C 59% 3.3 mph SSE5.3 kmh SSE 4.5 mph7.2 kmh 29.96 in1014.6 mb 0.00 in0.0 mm 0.00 in/hr0.0 mm/hr 0.00 in0.0 mm
07:25 AM 72.7°F22.6°C 57.1°F13.9°C 58% 3.2 mph SE5.1 kmh SE 4.5 mph7.2 kmh 29.96 in1014.6 mb 0.00 in0.0 mm 0.00 in/hr0.0 mm/hr 0.00 in0.0 mm
07:30 AM 73.2°F22.9°C 56.6°F13.7°C 56% 2.7 mph ESE4.3 kmh ESE 3.8 mph6.1 kmh 29.96 in1014.6 mb 0.00 in0.0 mm 0.00 in/hr0.0 mm/hr 0.00 in0.0 mm
07:35 AM 73.8°F23.2°C 56.6°F13.7°C 55% 3.6 mph E5.8 kmh E 6.9 mph11.1 kmh 29.96 in1014.6 mb 0.00 in0.0 mm 0.00 in/hr0.0 mm/hr 0.00 in0.0 mm
07:40 AM 74.3°F23.5°C 57.1°F13.9°C 55% 4.4 mph E7.1 kmh E 6.9 mph11.1 kmh 29.96 in1014.6 mb 0.00 in0.0 mm 0.00 in/hr0.0 mm/hr 0.00 in0.0 mm
07:45 AM 74.8°F23.8°C 57.6°F14.2°C 55% 4.2 mph E6.8 kmh E 6.0 mph9.7 kmh 29.96 in1014.6 mb 0.00 in0.0 mm 0.00 in/hr0.0 mm/hr 0.00 in0.0 mm
07:50 AM 75.2°F24.0°C 56.9°F13.8°C 53% 4.5 mph E7.2 kmh E 8.3 mph13.4 kmh 29.96 in1014.6 mb 0.00 in0.0 mm 0.00 in/hr0.0 mm/hr 0.00 in0.0 mm
07:55 AM 75.4°F24.1°C 57.1°F13.9°C 53% 3.9 mph E6.3 kmh E 8.3 mph13.4 kmh 29.96 in1014.6 mb 0.00 in0.0 mm 0.00 in/hr0.0 mm/hr 0.00 in0.0 mm
08:00 AM 75.7°F24.3°C 57.4°F14.1°C 53% 4.5 mph E7.2 kmh E 8.3 mph13.4 kmh 29.96 in1014.6 mb 0.00 in0.0 mm 0.00 in/hr0.0 mm/hr 0.00 in0.0 mm
08:05 AM 76.3°F24.6°C 57.4°F14.1°C 52% 6.5 mph E10.5 kmh E 8.3 mph13.4 kmh 29.96 in1014.6 mb 0.00 in0.0 mm 0.00 in/hr0.0 mm/hr 0.00 in0.0 mm
08:10 AM 76.5°F24.7°C 57.6°F14.2°C 52% 6.3 mph E10.1 kmh E 8.3 mph13.4 kmh 29.96 in1014.6 mb 0.00 in0.0 mm 0.00 in/hr0.0 mm/hr 0.00 in0.0 mm
08:15 AM 76.5°F24.7°C 58.1°F14.5°C 53% 5.1 mph E8.2 kmh E 7.6 mph12.2 kmh 29.96 in1014.6 mb 0.00 in0.0 mm 0.00 in/hr0.0 mm/hr 0.00 in0.0 mm
08:20 AM 77.2°F25.1°C 57.7°F14.3°C 51% 5.5 mph ENE8.9 kmh ENE 9.2 mph14.8 kmh 29.96 in1014.6 mb 0.00 in0.0 mm 0.00 in/hr0.0 mm/hr 0.00 in0.0 mm
08:25 AM 77.5°F25.3°C 58.6°F14.8°C 52% 5.2 mph NE8.4 kmh NE 9.2 mph14.8 kmh 29.96 in1014.6 mb 0.00 in0.0 mm 0.00 in/hr0.0 mm/hr 0.00 in0.0 mm
08:30 AM 77.9°F25.5°C 58.4°F14.7°C 51% 3.8 mph NE6.1 kmh NE 6.0 mph9.7 kmh 29.96 in1014.6 mb 0.00 in0.0 mm 0.00 in/hr0.0 mm/hr 0.00 in0.0 mm
08:35 AM 78.3°F25.7°C 58.1°F14.5°C 50% 3.8 mph NNE6.1 kmh NNE 6.0 mph9.7 kmh 29.96 in1014.6 mb 0.00 in0.0 mm 0.00 in/hr0.0 mm/hr 0.00 in0.0 mm
08:40 AM 78.6°F25.9°C 58.5°F14.7°C 50% 3.6 mph N5.8 kmh N 6.0 mph9.7 kmh 29.96 in1014.6 mb 0.00 in0.0 mm 0.00 in/hr0.0 mm/hr 0.00 in0.0 mm
08:45 AM 79.0°F26.1°C 59.3°F15.2°C 51% 3.3 mph N5.3 kmh N 5.4 mph8.7 kmh 29.96 in1014.6 mb 0.00 in0.0 mm 0.00 in/hr0.0 mm/hr 0.00 in0.0 mm
08:50 AM 79.2°F26.2°C 58.4°F14.7°C 49% 4.5 mph N7.2 kmh N 9.2 mph14.8 kmh 29.95 in1014.2 mb 0.00 in0.0 mm 0.00 in/hr0.0 mm/hr 0.00 in0.0 mm
08:55 AM 79.3°F26.3°C 58.6°F14.8°C 49% 5.8 mph N9.3 kmh N 9.2 mph14.8 kmh 29.95 in1014.2 mb 0.00 in0.0 mm 0.00 in/hr0.0 mm/hr 0.00 in0.0 mm
09:00 AM 79.3°F26.3°C 57.4°F14.1°C 47% 6.9 mph NE11.1 kmh NE 10.7 mph17.2 kmh 29.95 in1014.2 mb 0.00 in0.0 mm 0.00 in/hr0.0 mm/hr 0.00 in0.0 mm
09:05 AM 79.7°F26.5°C 58.3°F14.6°C 48% 7.4 mph E11.9 kmh E 13.0 mph20.9 kmh 29.94 in1013.9 mb 0.00 in0.0 mm 0.00 in/hr0.0 mm/hr 0.00 in0.0 mm
09:10 AM 80.1°F26.7°C 58.1°F14.5°C 47% 7.0 mph NE11.3 kmh NE 13.0 mph20.9 kmh 29.95 in1014.2 mb 0.00 in0.0 mm 0.00 in/hr0.0 mm/hr 0.00 in0.0 mm
09:15 AM 80.4°F26.9°C 59.0°F15.0°C 48% 5.9 mph NNE9.5 kmh NNE 9.2 mph14.8 kmh 29.94 in1013.9 mb 0.00 in0.0 mm 0.00 in/hr0.0 mm/hr 0.00 in0.0 mm
09:20 AM 81.3°F27.4°C 58.6°F14.8°C 46% 5.5 mph N8.9 kmh N 10.7 mph17.2 kmh 29.94 in1013.9 mb 0.00 in0.0 mm 0.00 in/hr0.0 mm/hr 0.00 in0.0 mm
09:25 AM 81.3°F27.4°C 58.0°F14.4°C 45% 7.2 mph N11.6 kmh N 10.7 mph17.2 kmh 29.94 in1013.9 mb 0.00 in0.0 mm 0.00 in/hr0.0 mm/hr 0.00 in0.0 mm
09:30 AM 81.9°F27.7°C 59.1°F15.1°C 46% 7.9 mph N12.7 kmh N 10.7 mph17.2 kmh 29.94 in1013.9 mb 0.00 in0.0 mm 0.00 in/hr0.0 mm/hr 0.00 in0.0 mm
09:35 AM 82.2°F27.9°C 58.8°F14.9°C 45% 8.0 mph N12.9 kmh N 9.8 mph15.8 kmh 29.94 in1013.9 mb 0.00 in0.0 mm 0.00 in/hr0.0 mm/hr 0.00 in0.0 mm
09:40 AM 82.8°F28.2°C 59.3°F15.2°C 45% 7.5 mph NNE12.1 kmh NNE 9.8 mph15.8 kmh 29.93 in1013.5 mb 0.00 in0.0 mm 0.00 in/hr0.0 mm/hr 0.00 in0.0 mm
09:45 AM 83.1°F28.4°C 59.0°F15.0°C 44% 6.3 mph NNE10.1 kmh NNE 9.8 mph15.8 kmh 29.93 in1013.5 mb 0.00 in0.0 mm 0.00 in/hr0.0 mm/hr 0.00 in0.0 mm
09:50 AM 83.5°F28.6°C 58.7°F14.8°C 43% 7.2 mph N11.6 kmh N 9.8 mph15.8 kmh 29.93 in1013.5 mb 0.00 in0.0 mm 0.00 in/hr0.0 mm/hr 0.00 in0.0 mm
09:55 AM 83.8°F28.8°C 58.3°F14.6°C 42% 8.4 mph NNW13.5 kmh NNW 11.4 mph18.3 kmh 29.93 in1013.5 mb 0.00 in0.0 mm 0.00 in/hr0.0 mm/hr 0.00 in0.0 mm
10:00 AM 84.2°F29.0°C 58.7°F14.8°C 42% 7.7 mph N12.4 kmh N 11.4 mph18.3 kmh 29.93 in1013.5 mb 0.00 in0.0 mm 0.00 in/hr0.0 mm/hr 0.00 in0.0 mm
10:05 AM 84.4°F29.1°C 58.8°F14.9°C 42% 6.7 mph N10.8 kmh N 9.8 mph15.8 kmh 29.93 in1013.5 mb 0.00 in0.0 mm 0.00 in/hr0.0 mm/hr 0.00 in0.0 mm
10:10 AM 84.9°F29.4°C 58.6°F14.8°C 41% 8.4 mph NW13.5 kmh NW 13.0 mph20.9 kmh 29.92 in1013.2 mb 0.00 in0.0 mm 0.00 in/hr0.0 mm/hr 0.00 in0.0 mm
10:15 AM 85.1°F29.5°C 58.8°F14.9°C 41% 9.4 mph NW15.1 kmh NW 13.0 mph20.9 kmh 29.92 in1013.2 mb 0.00 in0.0 mm 0.00 in/hr0.0 mm/hr 0.00 in0.0 mm
10:20 AM 84.9°F29.4°C 57.2°F14.0°C 39% 10.0 mph NW16.1 kmh NW 14.5 mph23.3 kmh 29.92 in1013.2 mb 0.00 in0.0 mm 0.00 in/hr0.0 mm/hr 0.00 in0.0 mm
10:25 AM 84.7°F29.3°C 57.8°F14.3°C 40% 10.3 mph NW16.6 kmh NW 14.5 mph23.3 kmh 29.92 in1013.2 mb 0.00 in0.0 mm 0.00 in/hr0.0 mm/hr 0.00 in0.0 mm
10:30 AM 85.6°F29.8°C 60.0°F15.6°C 42% 7.2 mph NW11.6 kmh NW 10.7 mph17.2 kmh 29.92 in1013.2 mb 0.00 in0.0 mm 0.00 in/hr0.0 mm/hr 0.00 in0.0 mm
10:35 AM 86.7°F30.4°C 60.3°F15.7°C 41% 5.3 mph NW8.5 kmh NW 8.3 mph13.4 kmh 29.91 in1012.9 mb 0.00 in0.0 mm 0.00 in/hr0.0 mm/hr 0.00 in0.0 mm
10:40 AM 86.7°F30.4°C 59.6°F15.3°C 40% 5.6 mph NNW9.0 kmh NNW 8.3 mph13.4 kmh 29.91 in1012.9 mb 0.00 in0.0 mm 0.00 in/hr0.0 mm/hr 0.00 in0.0 mm
10:45 AM 87.1°F30.6°C 60.6°F15.9°C 41% 5.6 mph NNE9.0 kmh NNE 10.7 mph17.2 kmh 29.91 in1012.9 mb 0.00 in0.0 mm 0.00 in/hr0.0 mm/hr 0.00 in0.0 mm
10:50 AM 86.9°F30.5°C 59.0°F15.0°C 39% 6.6 mph N10.6 kmh N 10.7 mph17.2 kmh 29.91 in1012.9 mb 0.00 in0.0 mm 0.00 in/hr0.0 mm/hr 0.00 in0.0 mm
10:55 AM 87.3°F30.7°C 59.3°F15.2°C 39% 7.7 mph NNW12.4 kmh NNW 10.7 mph17.2 kmh 29.91 in1012.9 mb 0.00 in0.0 mm 0.00 in/hr0.0 mm/hr 0.00 in0.0 mm
11:00 AM 88.0°F31.1°C 59.2°F15.1°C 38% 7.5 mph NW12.1 kmh NW 12.1 mph19.5 kmh 29.91 in1012.9 mb 0.00 in0.0 mm 0.00 in/hr0.0 mm/hr 0.00 in0.0 mm
11:05 AM 87.1°F30.6°C 58.4°F14.7°C 38% 9.4 mph N15.1 kmh N 15.2 mph24.5 kmh 29.91 in1012.9 mb 0.00 in0.0 mm 0.00 in/hr0.0 mm/hr 0.00 in0.0 mm
11:10 AM 87.6°F30.9°C 60.4°F15.8°C 40% 8.8 mph N14.2 kmh N 15.2 mph24.5 kmh 29.90 in1012.5 mb 0.00 in0.0 mm 0.00 in/hr0.0 mm/hr 0.00 in0.0 mm
11:15 AM 88.2°F31.2°C 59.4°F15.2°C 38% 5.9 mph NW9.5 kmh NW 6.9 mph11.1 kmh 29.90 in1012.5 mb 0.00 in0.0 mm 0.00 in/hr0.0 mm/hr 0.00 in0.0 mm
11:20 AM 88.0°F31.1°C 59.2°F15.1°C 38% 7.2 mph N11.6 kmh N 10.7 mph17.2 kmh 29.89 in1012.2 mb 0.00 in0.0 mm 0.00 in/hr0.0 mm/hr 0.00 in0.0 mm
11:25 AM 88.2°F31.2°C 59.4°F15.2°C 38% 7.3 mph N11.7 kmh N 10.7 mph17.2 kmh 29.89 in1012.2 mb 0.00 in0.0 mm 0.00 in/hr0.0 mm/hr 0.00 in0.0 mm
11:30 AM 88.3°F31.3°C 59.6°F15.3°C 38% 6.5 mph NW10.5 kmh NW 8.3 mph13.4 kmh 29.89 in1012.2 mb 0.00 in0.0 mm 0.00 in/hr0.0 mm/hr 0.00 in0.0 mm
11:35 AM 89.2°F31.8°C 58.8°F14.9°C 36% 6.6 mph NW10.6 kmh NW 8.3 mph13.4 kmh 29.89 in1012.2 mb 0.00 in0.0 mm 0.00 in/hr0.0 mm/hr 0.00 in0.0 mm
11:40 AM 89.8°F32.1°C 60.1°F15.6°C 37% 5.9 mph NW9.5 kmh NW 10.7 mph17.2 kmh 29.88 in1011.9 mb 0.00 in0.0 mm 0.00 in/hr0.0 mm/hr 0.00 in0.0 mm
11:45 AM 90.3°F32.4°C 59.8°F15.4°C 36% 5.8 mph NNW9.3 kmh NNW 10.7 mph17.2 kmh 29.88 in1011.9 mb 0.00 in0.0 mm 0.00 in/hr0.0 mm/hr 0.00 in0.0 mm
11:50 AM 90.5°F32.5°C 59.2°F15.1°C 35% 6.2 mph NW10.0 kmh NW 9.2 mph14.8 kmh 29.88 in1011.9 mb 0.00 in0.0 mm 0.00 in/hr0.0 mm/hr 0.00 in0.0 mm
11:55 AM 90.3°F32.4°C 59.0°F15.0°C 35% 6.8 mph N10.9 kmh N 9.8 mph15.8 kmh 29.88 in1011.9 mb 0.00 in0.0 mm 0.00 in/hr0.0 mm/hr 0.00 in0.0 mm
12:00 PM 90.1°F32.3°C 58.0°F14.4°C 34% 7.7 mph NNW12.4 kmh NNW 9.8 mph15.8 kmh 29.88 in1011.9 mb 0.00 in0.0 mm 0.00 in/hr0.0 mm/hr 0.00 in0.0 mm
12:05 PM 90.5°F32.5°C 58.4°F14.7°C 34% 7.7 mph NNW12.4 kmh NNW 9.8 mph15.8 kmh 29.88 in1011.9 mb 0.00 in0.0 mm 0.00 in/hr0.0 mm/hr 0.00 in0.0 mm
12:10 PM 91.0°F32.8°C 58.0°F14.4°C 33% 7.3 mph NNW11.7 kmh NNW 12.1 mph19.5 kmh 29.87 in1011.5 mb 0.00 in0.0 mm 0.00 in/hr0.0 mm/hr 0.00 in0.0 mm
12:15 PM 91.4°F33.0°C 57.5°F14.2°C 32% 6.7 mph NW10.8 kmh NW 12.1 mph19.5 kmh 29.87 in1011.5 mb 0.00 in0.0 mm 0.00 in/hr0.0 mm/hr 0.00 in0.0 mm
12:20 PM 91.8°F33.2°C 57.8°F14.3°C 32% 5.1 mph NW8.2 kmh NW 12.1 mph19.5 kmh 29.87 in1011.5 mb 0.00 in0.0 mm 0.00 in/hr0.0 mm/hr 0.00 in0.0 mm
12:25 PM 91.8°F33.2°C 57.8°F14.3°C 32% 6.1 mph NW9.8 kmh NW 9.8 mph15.8 kmh 29.87 in1011.5 mb 0.00 in0.0 mm 0.00 in/hr0.0 mm/hr 0.00 in0.0 mm
12:30 PM 91.2°F32.9°C 57.3°F14.1°C 32% 6.9 mph NW11.1 kmh NW 9.8 mph15.8 kmh 29.86 in1011.2 mb 0.00 in0.0 mm 0.00 in/hr0.0 mm/hr 0.00 in0.0 mm
12:35 PM 91.2°F32.9°C 57.3°F14.1°C 32% 6.4 mph WNW10.3 kmh WNW 8.3 mph13.4 kmh 29.87 in1011.5 mb 0.00 in0.0 mm 0.00 in/hr0.0 mm/hr 0.00 in0.0 mm
12:40 PM 91.8°F33.2°C 56.9°F13.8°C 31% 6.7 mph WNW10.8 kmh WNW 9.8 mph15.8 kmh 29.86 in1011.2 mb 0.00 in0.0 mm 0.00 in/hr0.0 mm/hr 0.00 in0.0 mm
12:45 PM 92.1°F33.4°C 58.1°F14.5°C 32% 6.8 mph W10.9 kmh W 9.8 mph15.8 kmh 29.86 in1011.2 mb 0.00 in0.0 mm 0.00 in/hr0.0 mm/hr 0.00 in0.0 mm
12:50 PM 93.4°F34.1°C 56.4°F13.6°C 29% 6.2 mph WNW10.0 kmh WNW 11.4 mph18.3 kmh 29.86 in1011.2 mb 0.00 in0.0 mm 0.00 in/hr0.0 mm/hr 0.00 in0.0 mm
12:55 PM 93.2°F34.0°C 56.3°F13.5°C 29% 7.0 mph WNW11.3 kmh WNW 12.1 mph19.5 kmh 29.86 in1011.2 mb 0.00 in0.0 mm 0.00 in/hr0.0 mm/hr 0.00 in0.0 mm
01:00 PM 92.8°F33.8°C 56.0°F13.3°C 29% 8.4 mph NW13.5 kmh NW 12.1 mph19.5 kmh 29.86 in1011.2 mb 0.00 in0.0 mm 0.00 in/hr0.0 mm/hr 0.00 in0.0 mm
01:05 PM 93.0°F33.9°C 56.1°F13.4°C 29% 7.6 mph NW12.2 kmh NW 12.1 mph19.5 kmh 29.86 in1011.2 mb 0.00 in0.0 mm 0.00 in/hr0.0 mm/hr 0.00 in0.0 mm
01:10 PM 93.0°F33.9°C 56.1°F13.4°C 29% 8.1 mph NW13.0 kmh NW 11.4 mph18.3 kmh 29.86 in1011.2 mb 0.00 in0.0 mm 0.00 in/hr0.0 mm/hr 0.00 in0.0 mm
01:15 PM 93.0°F33.9°C 54.2°F12.3°C 27% 9.7 mph NW15.6 kmh NW 11.4 mph18.3 kmh 29.86 in1011.2 mb 0.00 in0.0 mm 0.00 in/hr0.0 mm/hr 0.00 in0.0 mm
01:20 PM 92.7°F33.7°C 54.8°F12.7°C 28% 12.4 mph NW20.0 kmh NW 19.0 mph30.6 kmh 29.85 in1010.8 mb 0.00 in0.0 mm 0.00 in/hr0.0 mm/hr 0.00 in0.0 mm
01:25 PM 91.8°F33.2°C 54.1°F12.3°C 28% 12.6 mph WNW20.3 kmh WNW 19.0 mph30.6 kmh 29.85 in1010.8 mb 0.00 in0.0 mm 0.00 in/hr0.0 mm/hr 0.00 in0.0 mm
01:30 PM 90.5°F32.5°C 54.0°F12.2°C 29% 10.9 mph NW17.5 kmh NW 15.9 mph25.6 kmh 29.85 in1010.8 mb 0.00 in0.0 mm 0.00 in/hr0.0 mm/hr 0.00 in0.0 mm
01:35 PM 91.0°F32.8°C 54.4°F12.4°C 29% 10.3 mph WNW16.6 kmh WNW 15.9 mph25.6 kmh 29.84 in1010.5 mb 0.00 in0.0 mm 0.00 in/hr0.0 mm/hr 0.00 in0.0 mm
01:40 PM 90.7°F32.6°C 52.2°F11.2°C 27% 10.3 mph W16.6 kmh W 14.5 mph23.3 kmh 29.84 in1010.5 mb 0.00 in0.0 mm 0.00 in/hr0.0 mm/hr 0.00 in0.0 mm
01:45 PM 91.4°F33.0°C 51.8°F11.0°C 26% 12.3 mph WNW19.8 kmh WNW 17.4 mph28.0 kmh 29.84 in1010.5 mb 0.00 in0.0 mm 0.00 in/hr0.0 mm/hr 0.00 in0.0 mm
01:50 PM 91.4°F33.0°C 50.7°F10.4°C 25% 13.7 mph WNW22.0 kmh WNW 19.0 mph30.6 kmh 29.84 in1010.5 mb 0.00 in0.0 mm 0.00 in/hr0.0 mm/hr 0.00 in0.0 mm
01:55 PM 90.3°F32.4°C 49.8°F9.9°C 25% 15.0 mph WNW24.1 kmh WNW 19.0 mph30.6 kmh 29.84 in1010.5 mb 0.00 in0.0 mm 0.00 in/hr0.0 mm/hr 0.00 in0.0 mm
02:00 PM 89.8°F32.1°C 50.4°F10.2°C 26% 15.0 mph WNW24.1 kmh WNW 19.0 mph30.6 kmh 29.84 in1010.5 mb 0.00 in0.0 mm 0.00 in/hr0.0 mm/hr 0.00 in0.0 mm
02:05 PM 90.3°F32.4°C 51.9°F11.1°C 27% 14.2 mph WNW22.9 kmh WNW 19.7 mph31.7 kmh 29.84 in1010.5 mb 0.00 in0.0 mm 0.00 in/hr0.0 mm/hr 0.00 in0.0 mm
02:10 PM 91.2°F32.9°C 50.5°F10.3°C 25% 14.0 mph WNW22.5 kmh WNW 19.7 mph31.7 kmh 29.84 in1010.5 mb 0.00 in0.0 mm 0.00 in/hr0.0 mm/hr 0.00 in0.0 mm
02:15 PM 90.9°F32.7°C 51.3°F10.7°C 26% 14.0 mph WNW22.5 kmh WNW 16.8 mph27.0 kmh 29.84 in1010.5 mb 0.00 in0.0 mm 0.00 in/hr0.0 mm/hr 0.00 in0.0 mm
02:20 PM 90.5°F32.5°C 52.0°F11.1°C 27% 13.6 mph WNW21.9 kmh WNW 16.8 mph27.0 kmh 29.84 in1010.5 mb 0.00 in0.0 mm 0.00 in/hr0.0 mm/hr 0.00 in0.0 mm
02:25 PM 91.2°F32.9°C 53.6°F12.0°C 28% 11.0 mph WNW17.7 kmh WNW 15.9 mph25.6 kmh 29.84 in1010.5 mb 0.00 in0.0 mm 0.00 in/hr0.0 mm/hr 0.00 in0.0 mm
02:30 PM 91.6°F33.1°C 53.9°F12.2°C 28% 8.4 mph W13.5 kmh W 13.6 mph21.9 kmh 29.84 in1010.5 mb 0.00 in0.0 mm 0.00 in/hr0.0 mm/hr 0.00 in0.0 mm
02:35 PM 91.2°F32.9°C 53.6°F12.0°C 28% 8.1 mph W13.0 kmh W 13.6 mph21.9 kmh 29.84 in1010.5 mb 0.00 in0.0 mm 0.00 in/hr0.0 mm/hr 0.00 in0.0 mm
02:40 PM 91.4°F33.0°C 53.8°F12.1°C 28% 7.7 mph W12.4 kmh W 13.6 mph21.9 kmh 29.84 in1010.5 mb 0.00 in0.0 mm 0.00 in/hr0.0 mm/hr 0.00 in0.0 mm
02:45 PM 90.5°F32.5°C 54.0°F12.2°C 29% 8.2 mph WSW13.2 kmh WSW 13.6 mph21.9 kmh 29.84 in1010.5 mb 0.00 in0.0 mm 0.00 in/hr0.0 mm/hr 0.00 in0.0 mm
02:50 PM 90.0°F32.2°C 54.4°F12.4°C 30% 9.7 mph W15.6 kmh W 13.6 mph21.9 kmh 29.84 in1010.5 mb 0.00 in0.0 mm 0.00 in/hr0.0 mm/hr 0.00 in0.0 mm
02:55 PM 90.0°F32.2°C 54.4°F12.4°C 30% 8.0 mph W12.9 kmh W 13.6 mph21.9 kmh 29.84 in1010.5 mb 0.00 in0.0 mm 0.00 in/hr0.0 mm/hr 0.00 in0.0 mm
03:00 PM 89.4°F31.9°C 54.0°F12.2°C 30% 8.1 mph W13.0 kmh W 12.1 mph19.5 kmh 29.84 in1010.5 mb 0.00 in0.0 mm 0.00 in/hr0.0 mm/hr 0.00 in0.0 mm
03:05 PM 89.2°F31.8°C 53.8°F12.1°C 30% 8.3 mph W13.4 kmh W 12.1 mph19.5 kmh 29.84 in1010.5 mb 0.00 in0.0 mm 0.00 in/hr0.0 mm/hr 0.00 in0.0 mm
03:10 PM 89.6°F32.0°C 55.0°F12.8°C 31% 7.2 mph WSW11.6 kmh WSW 10.7 mph17.2 kmh 29.84 in1010.5 mb 0.00 in0.0 mm 0.00 in/hr0.0 mm/hr 0.00 in0.0 mm
03:15 PM 89.6°F32.0°C 54.1°F12.3°C 30% 8.4 mph W13.5 kmh W 10.7 mph17.2 kmh 29.84 in1010.5 mb 0.00 in0.0 mm 0.00 in/hr0.0 mm/hr 0.00 in0.0 mm
03:20 PM 88.5°F31.4°C 53.2°F11.8°C 30% 10.2 mph WNW16.4 kmh WNW 13.6 mph21.9 kmh 29.84 in1010.5 mb 0.00 in0.0 mm 0.00 in/hr0.0 mm/hr 0.00 in0.0 mm
03:25 PM 87.4°F30.8°C 54.0°F12.2°C 32% 10.9 mph WNW17.5 kmh WNW 15.9 mph25.6 kmh 29.84 in1010.5 mb 0.00 in0.0 mm 0.00 in/hr0.0 mm/hr 0.00 in0.0 mm
03:30 PM 86.7°F30.4°C 54.2°F12.3°C 33% 9.5 mph W15.3 kmh W 15.9 mph25.6 kmh 29.84 in1010.5 mb 0.00 in0.0 mm 0.00 in/hr0.0 mm/hr 0.00 in0.0 mm
03:35 PM 86.5°F30.3°C 54.1°F12.3°C 33% 7.7 mph WSW12.4 kmh WSW 12.1 mph19.5 kmh 29.84 in1010.5 mb 0.00 in0.0 mm 0.00 in/hr0.0 mm/hr 0.00 in0.0 mm
03:40 PM 86.2°F30.1°C 54.6°F12.6°C 34% 8.2 mph W13.2 kmh W 12.1 mph19.5 kmh 29.84 in1010.5 mb 0.00 in0.0 mm 0.00 in/hr0.0 mm/hr 0.00 in0.0 mm
03:45 PM 85.8°F29.9°C 54.3°F12.4°C 34% 10.2 mph W16.4 kmh W 13.6 mph21.9 kmh 29.84 in1010.5 mb 0.00 in0.0 mm 0.00 in/hr0.0 mm/hr 0.00 in0.0 mm
03:50 PM 85.6°F29.8°C 54.9°F12.7°C 35% 10.3 mph W16.6 kmh W 13.6 mph21.9 kmh 29.84 in1010.5 mb 0.00 in0.0 mm 0.00 in/hr0.0 mm/hr 0.00 in0.0 mm
03:55 PM 85.5°F29.7°C 54.7°F12.6°C 35% 9.9 mph W15.9 kmh W 12.1 mph19.5 kmh 29.84 in1010.5 mb 0.00 in0.0 mm 0.00 in/hr0.0 mm/hr 0.00 in0.0 mm
04:00 PM 84.9°F29.4°C 55.0°F12.8°C 36% 9.6 mph W15.4 kmh W 13.0 mph20.9 kmh 29.84 in1010.5 mb 0.00 in0.0 mm 0.00 in/hr0.0 mm/hr 0.00 in0.0 mm
04:05 PM 84.2°F29.0°C 55.2°F12.9°C 37% 9.6 mph W15.4 kmh W 13.0 mph20.9 kmh 29.84 in1010.5 mb 0.00 in0.0 mm 0.00 in/hr0.0 mm/hr 0.00 in0.0 mm
04:10 PM 84.2°F29.0°C 55.2°F12.9°C 37% 9.7 mph W15.6 kmh W 12.1 mph19.5 kmh 29.84 in1010.5 mb 0.00 in0.0 mm 0.00 in/hr0.0 mm/hr 0.00 in0.0 mm
04:15 PM 84.0°F28.9°C 55.0°F12.8°C 37% 9.0 mph W14.5 kmh W 14.5 mph23.3 kmh 29.84 in1010.5 mb 0.00 in0.0 mm 0.00 in/hr0.0 mm/hr 0.00 in0.0 mm
04:20 PM 84.0°F28.9°C 55.0°F12.8°C 37% 8.3 mph W13.4 kmh W 14.5 mph23.3 kmh 29.84 in1010.5 mb 0.00 in0.0 mm 0.00 in/hr0.0 mm/hr 0.00 in0.0 mm
04:25 PM 83.8°F28.8°C 54.8°F12.7°C 37% 8.4 mph W13.5 kmh W 10.7 mph17.2 kmh 29.85 in1010.8 mb 0.00 in0.0 mm 0.00 in/hr0.0 mm/hr 0.00 in0.0 mm
04:30 PM 84.0°F28.9°C 55.7°F13.2°C 38% 9.1 mph W14.6 kmh W 11.4 mph18.3 kmh 29.85 in1010.8 mb 0.00 in0.0 mm 0.00 in/hr0.0 mm/hr 0.00 in0.0 mm
04:35 PM 84.2°F29.0°C 55.9°F13.3°C 38% 8.9 mph W14.3 kmh W 11.4 mph18.3 kmh 29.85 in1010.8 mb 0.00 in0.0 mm 0.00 in/hr0.0 mm/hr 0.00 in0.0 mm
04:40 PM 84.2°F29.0°C 55.9°F13.3°C 38% 8.0 mph WNW12.9 kmh WNW 10.7 mph17.2 kmh 29.85 in1010.8 mb 0.00 in0.0 mm 0.00 in/hr0.0 mm/hr 0.00 in0.0 mm
04:45 PM 84.0°F28.9°C 55.7°F13.2°C 38% 8.0 mph W12.9 kmh W 10.7 mph17.2 kmh 29.85 in1010.8 mb 0.00 in0.0 mm 0.00 in/hr0.0 mm/hr 0.00 in0.0 mm
04:50 PM 83.8°F28.8°C 55.6°F13.1°C 38% 7.9 mph W12.7 kmh W 10.7 mph17.2 kmh 29.85 in1010.8 mb 0.00 in0.0 mm 0.00 in/hr0.0 mm/hr 0.00 in0.0 mm
04:55 PM 83.5°F28.6°C 56.0°F13.3°C 39% 7.3 mph W11.7 kmh W 9.8 mph15.8 kmh 29.85 in1010.8 mb 0.00 in0.0 mm 0.00 in/hr0.0 mm/hr 0.00 in0.0 mm
05:00 PM 83.3°F28.5°C 56.5°F13.6°C 40% 6.8 mph WSW10.9 kmh WSW 9.8 mph15.8 kmh 29.86 in1011.2 mb 0.00 in0.0 mm 0.00 in/hr0.0 mm/hr 0.00 in0.0 mm
05:05 PM 83.1°F28.4°C 56.3°F13.5°C 40% 6.6 mph W10.6 kmh W 9.2 mph14.8 kmh 29.85 in1010.8 mb 0.00 in0.0 mm 0.00 in/hr0.0 mm/hr 0.00 in0.0 mm
05:10 PM 82.8°F28.2°C 56.0°F13.3°C 40% 6.4 mph W10.3 kmh W 9.2 mph14.8 kmh 29.86 in1011.2 mb 0.00 in0.0 mm 0.00 in/hr0.0 mm/hr 0.00 in0.0 mm
05:15 PM 82.6°F28.1°C 56.5°F13.6°C 41% 6.7 mph W10.8 kmh W 9.8 mph15.8 kmh 29.85 in1010.8 mb 0.00 in0.0 mm 0.00 in/hr0.0 mm/hr 0.00 in0.0 mm
05:20 PM 82.4°F28.0°C 55.7°F13.2°C 40% 7.3 mph WSW11.7 kmh WSW 9.8 mph15.8 kmh 29.86 in1011.2 mb 0.00 in0.0 mm 0.00 in/hr0.0 mm/hr 0.00 in0.0 mm
05:25 PM 82.2°F27.9°C 55.5°F13.1°C 40% 6.9 mph WSW11.1 kmh WSW 9.2 mph14.8 kmh 29.86 in1011.2 mb 0.00 in0.0 mm 0.00 in/hr0.0 mm/hr 0.00 in0.0 mm
05:30 PM 81.9°F27.7°C 55.2°F12.9°C 40% 7.0 mph WNW11.3 kmh WNW 9.2 mph14.8 kmh 29.86 in1011.2 mb 0.00 in0.0 mm 0.00 in/hr0.0 mm/hr 0.00 in0.0 mm
05:35 PM 81.9°F27.7°C 55.2°F12.9°C 40% 7.5 mph WNW12.1 kmh WNW 9.8 mph15.8 kmh 29.86 in1011.2 mb 0.00 in0.0 mm 0.00 in/hr0.0 mm/hr 0.00 in0.0 mm
05:40 PM 81.7°F27.6°C 55.1°F12.8°C 40% 7.4 mph WNW11.9 kmh WNW 9.8 mph15.8 kmh 29.86 in1011.2 mb 0.00 in0.0 mm 0.00 in/hr0.0 mm/hr 0.00 in0.0 mm
05:45 PM 81.5°F27.5°C 54.2°F12.3°C 39% 7.3 mph WNW11.7 kmh WNW 9.8 mph15.8 kmh 29.86 in1011.2 mb 0.00 in0.0 mm 0.00 in/hr0.0 mm/hr 0.00 in0.0 mm
05:50 PM 81.3°F27.4°C 54.7°F12.6°C 40% 6.8 mph W10.9 kmh W 8.3 mph13.4 kmh 29.87 in1011.5 mb 0.00 in0.0 mm 0.00 in/hr0.0 mm/hr 0.00 in0.0 mm
05:55 PM 81.1°F27.3°C 54.6°F12.6°C 40% 5.5 mph W8.9 kmh W 7.6 mph12.2 kmh 29.87 in1011.5 mb 0.00 in0.0 mm 0.00 in/hr0.0 mm/hr 0.00 in0.0 mm
06:00 PM 81.0°F27.2°C 54.4°F12.4°C 40% 4.7 mph WSW7.6 kmh WSW 6.9 mph11.1 kmh 29.88 in1011.9 mb 0.00 in0.0 mm 0.00 in/hr0.0 mm/hr 0.00 in0.0 mm
06:05 PM 81.0°F27.2°C 54.4°F12.4°C 40% 4.0 mph WSW6.4 kmh WSW 6.0 mph9.7 kmh 29.88 in1011.9 mb 0.00 in0.0 mm 0.00 in/hr0.0 mm/hr 0.00 in0.0 mm
06:10 PM 80.8°F27.1°C 54.9°F12.7°C 41% 3.3 mph WSW5.3 kmh WSW 6.0 mph9.7 kmh 29.88 in1011.9 mb 0.00 in0.0 mm 0.00 in/hr0.0 mm/hr 0.00 in0.0 mm
06:15 PM 80.4°F26.9°C 54.6°F12.6°C 41% 3.5 mph WSW5.6 kmh WSW 6.0 mph9.7 kmh 29.88 in1011.9 mb 0.00 in0.0 mm 0.00 in/hr0.0 mm/hr 0.00 in0.0 mm
06:20 PM 80.1°F26.7°C 54.3°F12.4°C 41% 4.0 mph WSW6.4 kmh WSW 6.9 mph11.1 kmh 29.88 in1011.9 mb 0.00 in0.0 mm 0.00 in/hr0.0 mm/hr 0.00 in0.0 mm
06:25 PM 79.7°F26.5°C 54.6°F12.6°C 42% 4.0 mph WSW6.4 kmh WSW 6.9 mph11.1 kmh 29.89 in1012.2 mb 0.00 in0.0 mm 0.00 in/hr0.0 mm/hr 0.00 in0.0 mm
06:30 PM 79.3°F26.3°C 54.3°F12.4°C 42% 3.2 mph WSW5.1 kmh WSW 6.9 mph11.1 kmh 29.89 in1012.2 mb 0.00 in0.0 mm 0.00 in/hr0.0 mm/hr 0.00 in0.0 mm
06:35 PM 79.3°F26.3°C 54.9°F12.7°C 43% 2.2 mph WSW3.5 kmh WSW 5.4 mph8.7 kmh 29.89 in1012.2 mb 0.00 in0.0 mm 0.00 in/hr0.0 mm/hr 0.00 in0.0 mm
06:40 PM 79.0°F26.1°C 54.6°F12.6°C 43% 1.6 mph SW2.6 kmh SW 3.1 mph5.0 kmh 29.89 in1012.2 mb 0.00 in0.0 mm 0.00 in/hr0.0 mm/hr 0.00 in0.0 mm
06:45 PM 79.0°F26.1°C 54.6°F12.6°C 43% 1.5 mph SW2.4 kmh SW 2.2 mph3.5 kmh 29.89 in1012.2 mb 0.00 in0.0 mm 0.00 in/hr0.0 mm/hr 0.00 in0.0 mm
06:50 PM 78.4°F25.8°C 54.8°F12.7°C 44% 1.3 mph SW2.1 kmh SW 2.2 mph3.5 kmh 29.89 in1012.2 mb 0.00 in0.0 mm 0.00 in/hr0.0 mm/hr 0.00 in0.0 mm
06:55 PM 78.1°F25.6°C 54.4°F12.4°C 44% 1.1 mph SW1.8 kmh SW 2.2 mph3.5 kmh 29.89 in1012.2 mb 0.00 in0.0 mm 0.00 in/hr0.0 mm/hr 0.00 in0.0 mm
07:00 PM 77.7°F25.4°C 54.7°F12.6°C 45% 1.0 mph SW1.6 kmh SW 2.2 mph3.5 kmh 29.90 in1012.5 mb 0.00 in0.0 mm 0.00 in/hr0.0 mm/hr 0.00 in0.0 mm
07:05 PM 77.2°F25.1°C 54.2°F12.3°C 45% 0.6 mph SW1.0 kmh SW 1.6 mph2.6 kmh 29.89 in1012.2 mb 0.00 in0.0 mm 0.00 in/hr0.0 mm/hr 0.00 in0.0 mm
07:10 PM 76.8°F24.9°C 54.5°F12.5°C 46% 0.4 mph SW0.6 kmh SW 0.7 mph1.1 kmh 29.90 in1012.5 mb 0.00 in0.0 mm 0.00 in/hr0.0 mm/hr 0.00 in0.0 mm
07:15 PM 76.3°F24.6°C 54.6°F12.6°C 47% 0.7 mph SW1.1 kmh SW 1.6 mph2.6 kmh 29.89 in1012.2 mb 0.00 in0.0 mm 0.00 in/hr0.0 mm/hr 0.00 in0.0 mm
07:20 PM 75.9°F24.4°C 54.3°F12.4°C 47% 0.9 mph SW1.4 kmh SW 1.6 mph2.6 kmh 29.90 in1012.5 mb 0.00 in0.0 mm 0.00 in/hr0.0 mm/hr 0.00 in0.0 mm
07:25 PM 75.6°F24.2°C 54.5°F12.5°C 48% 1.0 mph SW1.6 kmh SW 1.6 mph2.6 kmh 29.90 in1012.5 mb 0.00 in0.0 mm 0.00 in/hr0.0 mm/hr 0.00 in0.0 mm
07:30 PM 75.0°F23.9°C 54.0°F12.2°C 48% 1.4 mph SW2.3 kmh SW 2.2 mph3.5 kmh 29.91 in1012.9 mb 0.00 in0.0 mm 0.00 in/hr0.0 mm/hr 0.00 in0.0 mm
07:35 PM 74.7°F23.7°C 54.3°F12.4°C 49% 1.7 mph S2.7 kmh S 2.2 mph3.5 kmh 29.91 in1012.9 mb 0.00 in0.0 mm 0.00 in/hr0.0 mm/hr 0.00 in0.0 mm
07:40 PM 74.5°F23.6°C 54.7°F12.6°C 50% 1.2 mph SSW1.9 kmh SSW 2.2 mph3.5 kmh 29.91 in1012.9 mb 0.00 in0.0 mm 0.00 in/hr0.0 mm/hr 0.00 in0.0 mm
07:45 PM 74.1°F23.4°C 54.3°F12.4°C 50% 0.8 mph SW1.3 kmh SW 1.6 mph2.6 kmh 29.91 in1012.9 mb 0.00 in0.0 mm 0.00 in/hr0.0 mm/hr 0.00 in0.0 mm
07:50 PM 74.1°F23.4°C 54.3°F12.4°C 50% 0.7 mph SW1.1 kmh SW 1.6 mph2.6 kmh 29.92 in1013.2 mb 0.00 in0.0 mm 0.00 in/hr0.0 mm/hr 0.00 in0.0 mm
07:55 PM 73.8°F23.2°C 54.0°F12.2°C 50% 1.0 mph WSW1.6 kmh WSW 1.6 mph2.6 kmh 29.92 in1013.2 mb 0.00 in0.0 mm 0.00 in/hr0.0 mm/hr 0.00 in0.0 mm
08:00 PM 73.6°F23.1°C 53.3°F11.8°C 49% 1.4 mph SW2.3 kmh SW 1.6 mph2.6 kmh 29.93 in1013.5 mb 0.00 in0.0 mm 0.00 in/hr0.0 mm/hr 0.00 in0.0 mm
08:05 PM 73.4°F23.0°C 53.1°F11.7°C 49% 1.4 mph SW2.3 kmh SW 2.2 mph3.5 kmh 29.93 in1013.5 mb 0.00 in0.0 mm 0.00 in/hr0.0 mm/hr 0.00 in0.0 mm
08:10 PM 73.2°F22.9°C 52.9°F11.6°C 49% 1.4 mph SW2.3 kmh SW 2.2 mph3.5 kmh 29.93 in1013.5 mb 0.00 in0.0 mm 0.00 in/hr0.0 mm/hr 0.00 in0.0 mm
08:15 PM 73.0°F22.8°C 51.6°F10.9°C 47% 1.7 mph SW2.7 kmh SW 4.5 mph7.2 kmh 29.93 in1013.5 mb 0.00 in0.0 mm 0.00 in/hr0.0 mm/hr 0.00 in0.0 mm
08:20 PM 72.9°F22.7°C 51.5°F10.8°C 47% 2.7 mph S4.3 kmh S 4.5 mph7.2 kmh 29.93 in1013.5 mb 0.00 in0.0 mm 0.00 in/hr0.0 mm/hr 0.00 in0.0 mm
08:25 PM 72.5°F22.5°C 51.2°F10.7°C 47% 3.1 mph S5.0 kmh S 3.8 mph6.1 kmh 29.93 in1013.5 mb 0.00 in0.0 mm 0.00 in/hr0.0 mm/hr 0.00 in0.0 mm
08:30 PM 72.3°F22.4°C 51.0°F10.6°C 47% 2.7 mph SSW4.3 kmh SSW 3.8 mph6.1 kmh 29.93 in1013.5 mb 0.00 in0.0 mm 0.00 in/hr0.0 mm/hr 0.00 in0.0 mm
08:35 PM 72.3°F22.4°C 52.1°F11.2°C 49% 2.6 mph S4.2 kmh S 3.1 mph5.0 kmh 29.93 in1013.5 mb 0.00 in0.0 mm 0.00 in/hr0.0 mm/hr 0.00 in0.0 mm
08:40 PM 72.1°F22.3°C 52.5°F11.4°C 50% 2.2 mph S3.5 kmh S 3.1 mph5.0 kmh 29.93 in1013.5 mb 0.00 in0.0 mm 0.00 in/hr0.0 mm/hr 0.00 in0.0 mm
08:45 PM 71.8°F22.1°C 52.7°F11.5°C 51% 1.9 mph S3.1 kmh S 2.2 mph3.5 kmh 29.94 in1013.9 mb 0.00 in0.0 mm 0.00 in/hr0.0 mm/hr 0.00 in0.0 mm
08:50 PM 71.4°F21.9°C 52.9°F11.6°C 52% 1.9 mph S3.1 kmh S 2.2 mph3.5 kmh 29.94 in1013.9 mb 0.00 in0.0 mm 0.00 in/hr0.0 mm/hr 0.00 in0.0 mm
08:55 PM 71.2°F21.8°C 53.3°F11.8°C 53% 2.0 mph S3.2 kmh S 2.2 mph3.5 kmh 29.94 in1013.9 mb 0.00 in0.0 mm 0.00 in/hr0.0 mm/hr 0.00 in0.0 mm
09:00 PM 70.7°F21.5°C 52.8°F11.6°C 53% 1.9 mph S3.1 kmh S 2.2 mph3.5 kmh 29.94 in1013.9 mb 0.00 in0.0 mm 0.00 in/hr0.0 mm/hr 0.00 in0.0 mm
09:05 PM 70.5°F21.4°C 53.1°F11.7°C 54% 1.9 mph S3.1 kmh S 2.2 mph3.5 kmh 29.94 in1013.9 mb 0.00 in0.0 mm 0.00 in/hr0.0 mm/hr 0.00 in0.0 mm
09:10 PM 70.2°F21.2°C 53.3°F11.8°C 55% 1.7 mph S2.7 kmh S 2.2 mph3.5 kmh 29.94 in1013.9 mb 0.00 in0.0 mm 0.00 in/hr0.0 mm/hr 0.00 in0.0 mm
09:15 PM 70.0°F21.1°C 53.1°F11.7°C 55% 1.8 mph S2.9 kmh S 2.2 mph3.5 kmh 29.94 in1013.9 mb 0.00 in0.0 mm 0.00 in/hr0.0 mm/hr 0.00 in0.0 mm
09:20 PM 69.4°F20.8°C 53.1°F11.7°C 56% 1.3 mph S2.1 kmh S 2.2 mph3.5 kmh 29.94 in1013.9 mb 0.00 in0.0 mm 0.00 in/hr0.0 mm/hr 0.00 in0.0 mm
09:25 PM 68.9°F20.5°C 52.6°F11.4°C 56% 0.8 mph WNW1.3 kmh WNW 2.2 mph3.5 kmh 29.94 in1013.9 mb 0.00 in0.0 mm 0.00 in/hr0.0 mm/hr 0.00 in0.0 mm
09:30 PM 68.4°F20.2°C 52.6°F11.4°C 57% 1.1 mph NW1.8 kmh NW 2.2 mph3.5 kmh 29.94 in1013.9 mb 0.00 in0.0 mm 0.00 in/hr0.0 mm/hr 0.00 in0.0 mm
09:35 PM 68.5°F20.3°C 52.7°F11.5°C 57% 0.8 mph NNW1.3 kmh NNW 2.2 mph3.5 kmh 29.94 in1013.9 mb 0.00 in0.0 mm 0.00 in/hr0.0 mm/hr 0.00 in0.0 mm
09:40 PM 68.5°F20.3°C 52.7°F11.5°C 57% 1.2 mph SE1.9 kmh SE 3.1 mph5.0 kmh 29.94 in1013.9 mb 0.00 in0.0 mm 0.00 in/hr0.0 mm/hr 0.00 in0.0 mm
09:45 PM 68.2°F20.1°C 52.9°F11.6°C 58% 1.3 mph S2.1 kmh S 3.1 mph5.0 kmh 29.95 in1014.2 mb 0.00 in0.0 mm 0.00 in/hr0.0 mm/hr 0.00 in0.0 mm
09:50 PM 67.8°F19.9°C 52.5°F11.4°C 58% 1.2 mph SW1.9 kmh SW 1.6 mph2.6 kmh 29.95 in1014.2 mb 0.00 in0.0 mm 0.00 in/hr0.0 mm/hr 0.00 in0.0 mm
09:55 PM 67.6°F19.8°C 52.8°F11.6°C 59% 1.4 mph S2.3 kmh S 1.6 mph2.6 kmh 29.95 in1014.2 mb 0.00 in0.0 mm 0.00 in/hr0.0 mm/hr 0.00 in0.0 mm
10:00 PM 67.8°F19.9°C 53.0°F11.7°C 59% 1.5 mph SSE2.4 kmh SSE 2.2 mph3.5 kmh 29.94 in1013.9 mb 0.00 in0.0 mm 0.00 in/hr0.0 mm/hr 0.00 in0.0 mm
10:05 PM 67.6°F19.8°C 53.3°F11.8°C 60% 1.8 mph SSE2.9 kmh SSE 2.2 mph3.5 kmh 29.94 in1013.9 mb 0.00 in0.0 mm 0.00 in/hr0.0 mm/hr 0.00 in0.0 mm
10:10 PM 67.3°F19.6°C 52.9°F11.6°C 60% 1.7 mph SSE2.7 kmh SSE 2.2 mph3.5 kmh 29.95 in1014.2 mb 0.00 in0.0 mm 0.00 in/hr0.0 mm/hr 0.00 in0.0 mm
10:15 PM 67.1°F19.5°C 52.8°F11.6°C 60% 1.4 mph SSE2.3 kmh SSE 2.2 mph3.5 kmh 29.94 in1013.9 mb 0.00 in0.0 mm 0.00 in/hr0.0 mm/hr 0.00 in0.0 mm
10:20 PM 66.7°F19.3°C 52.4°F11.3°C 60% 0.7 mph SE1.1 kmh SE 2.2 mph3.5 kmh 29.93 in1013.5 mb 0.00 in0.0 mm 0.00 in/hr0.0 mm/hr 0.00 in0.0 mm
10:25 PM 66.2°F19.0°C 52.4°F11.3°C 61% Calm Calm -- 29.94 in1013.9 mb 0.00 in0.0 mm 0.00 in/hr0.0 mm/hr 0.00 in0.0 mm
10:30 PM 66.0°F18.9°C 52.2°F11.2°C 61% 0.2 mph S0.3 kmh S 0.7 mph1.1 kmh 29.95 in1014.2 mb 0.00 in0.0 mm 0.00 in/hr0.0 mm/hr 0.00 in0.0 mm
10:35 PM 66.0°F18.9°C 52.2°F11.2°C 61% 0.8 mph S1.3 kmh S 1.6 mph2.6 kmh 29.94 in1013.9 mb 0.00 in0.0 mm 0.00 in/hr0.0 mm/hr 0.00 in0.0 mm
10:40 PM 65.8°F18.8°C 52.5°F11.4°C 62% 1.4 mph S2.3 kmh S 1.6 mph2.6 kmh 29.95 in1014.2 mb 0.00 in0.0 mm 0.00 in/hr0.0 mm/hr 0.00 in0.0 mm
10:45 PM 65.7°F18.7°C 52.3°F11.3°C 62% 1.4 mph SE2.3 kmh SE 2.2 mph3.5 kmh 29.95 in1014.2 mb 0.00 in0.0 mm 0.00 in/hr0.0 mm/hr 0.00 in0.0 mm
10:50 PM 65.5°F18.6°C 52.1°F11.2°C 62% 0.9 mph SE1.4 kmh SE 2.2 mph3.5 kmh 29.95 in1014.2 mb 0.00 in0.0 mm 0.00 in/hr0.0 mm/hr 0.00 in0.0 mm
10:55 PM 65.3°F18.5°C 52.4°F11.3°C 63% 0.6 mph SE1.0 kmh SE 3.1 mph5.0 kmh 29.95 in1014.2 mb 0.00 in0.0 mm 0.00 in/hr0.0 mm/hr 0.00 in0.0 mm
11:00 PM 64.9°F18.3°C 52.1°F11.2°C 63% 1.2 mph SSE1.9 kmh SSE 3.1 mph5.0 kmh 29.94 in1013.9 mb 0.00 in0.0 mm 0.00 in/hr0.0 mm/hr 0.00 in0.0 mm
11:05 PM 64.8°F18.2°C 51.9°F11.1°C 63% 1.5 mph S2.4 kmh S 3.1 mph5.0 kmh 29.94 in1013.9 mb 0.00 in0.0 mm 0.00 in/hr0.0 mm/hr 0.00 in0.0 mm
11:10 PM 64.6°F18.1°C 51.3°F10.7°C 62% 1.4 mph S2.3 kmh S 2.2 mph3.5 kmh 29.94 in1013.9 mb 0.00 in0.0 mm 0.00 in/hr0.0 mm/hr 0.00 in0.0 mm
11:15 PM 64.4°F18.0°C 51.1°F10.6°C 62% 1.5 mph S2.4 kmh S 2.2 mph3.5 kmh 29.95 in1014.2 mb 0.00 in0.0 mm 0.00 in/hr0.0 mm/hr 0.00 in0.0 mm
11:20 PM 64.2°F17.9°C 51.4°F10.8°C 63% 1.4 mph S2.3 kmh S 2.2 mph3.5 kmh 29.95 in1014.2 mb 0.00 in0.0 mm 0.00 in/hr0.0 mm/hr 0.00 in0.0 mm
11:25 PM 64.2°F17.9°C 51.4°F10.8°C 63% 1.1 mph S1.8 kmh S 1.6 mph2.6 kmh 29.95 in1014.2 mb 0.00 in0.0 mm 0.00 in/hr0.0 mm/hr 0.00 in0.0 mm
11:30 PM 64.0°F17.8°C 51.2°F10.7°C 63% 1.3 mph S2.1 kmh S 2.2 mph3.5 kmh 29.95 in1014.2 mb 0.00 in0.0 mm 0.00 in/hr0.0 mm/hr 0.00 in0.0 mm
11:35 PM 63.9°F17.7°C 51.0°F10.6°C 63% 1.0 mph S1.6 kmh S 2.2 mph3.5 kmh 29.95 in1014.2 mb 0.00 in0.0 mm 0.00 in/hr0.0 mm/hr 0.00 in0.0 mm
11:40 PM 63.7°F17.6°C 50.4°F10.2°C 62% 0.9 mph S1.4 kmh S 1.6 mph2.6 kmh 29.95 in1014.2 mb 0.00 in0.0 mm 0.00 in/hr0.0 mm/hr 0.00 in0.0 mm
11:45 PM 63.3°F17.4°C 50.1°F10.1°C 62% 1.8 mph SSE2.9 kmh SSE 2.2 mph3.5 kmh 29.95 in1014.2 mb 0.00 in0.0 mm 0.00 in/hr0.0 mm/hr 0.00 in0.0 mm
11:50 PM 63.1°F17.3°C 49.9°F9.9°C 62% 2.2 mph SE3.5 kmh SE 3.1 mph5.0 kmh 29.95 in1014.2 mb 0.00 in0.0 mm 0.00 in/hr0.0 mm/hr 0.00 in0.0 mm
11:55 PM 63.0°F17.2°C 49.8°F9.9°C 62% 2.0 mph SSE3.2 kmh SSE 3.1 mph5.0 kmh 29.95 in1014.2 mb 0.00 in0.0 mm 0.00 in/hr0.0 mm/hr 0.00 in0.0 mm